ESMK

Kristianstad Airport

Kristianstad, Sweden
METAR ESMK 170150Z AUTO 36003KT 9000 FEW009/// OVC024/// M01/M01 Q1009
Observed Flight Rules
Dec-17 @ 01:50 UTC (40 minutes ago) Marginal Visual Flight Rules
Wind Visibility Clouds
360° at 3 knots 8,996 meters
  • Few at 900' AGL
  • Overcast at 2,400' AGL
Temperatures Readings
Current -1°C / 30°F
Dewpoint -1°C / 30°F
Humidity 100%
Altimeter 29.79" Hg
Pressure 1009 hPa
Elevation 23
METAR ESMK 170150Z AUTO 36003KT 9000 FEW009/// OVC024/// M01/M01 Q1009
Observed Flight Rules
Dec-17 @ 01:50 UTC
(40 minutes ago)
MVFR
Wind Visibility
360° at 3 knots 8,996 meters
Clouds
  • Few at 900' AGL
  • Overcast at 2,400' AGL
Temperature Dewpoint
-1°C / 30°F -1°C / 30°F
Humidity Altimeter Pressure
100% 29.79" Hg 1009 hPa